Time;durP1;ratioP1;P1;durP2;ratioP2;P2;SDS_P1;SDS_P2;PMS_P1;PMS_P2;Temp;Humidity;BMP_temperature;BMP_pressure;BME280_temperature;BME280_humidity;BME280_pressure;Samples;Min_cycle;Max_cycle;Signal;HPM_P1;HPM_P2
2023/10/20 00:01:05;;;;;;;16.07;14.47;;;;;;;14.14;100.00;95353.38;5074001;28;20668;-73
2023/10/20 00:03:31;;;;;;;15.20;13.60;;;;;;;14.17;100.00;95340.22;5074416;28;20552;-73
2023/10/20 00:05:58;;;;;;;14.80;13.30;;;;;;;14.15;100.00;95337.03;5073928;28;20574;-73
2023/10/20 00:08:25;;;;;;;14.93;13.53;;;;;;;14.13;100.00;95338.44;5074166;28;20232;-73
2023/10/20 00:10:52;;;;;;;12.87;11.67;;;;;;;14.22;100.00;95337.44;5074436;28;20205;-73
2023/10/20 00:13:18;;;;;;;9.83;8.83;;;;;;;14.22;100.00;95334.75;5073884;28;20679;-73
2023/10/20 00:15:46;;;;;;;6.30;5.70;;;;;;;14.30;100.00;95336.66;5073840;28;20224;-73
2023/10/20 00:18:12;;;;;;;8.00;5.47;;;;;;;14.49;100.00;95339.91;5073997;28;20224;-73
2023/10/20 00:20:38;;;;;;;6.20;5.60;;;;;;;14.50;100.00;95330.00;5073732;28;20661;-73
2023/10/20 00:23:05;;;;;;;7.60;6.20;;;;;;;14.49;100.00;95329.22;5073655;28;20572;-73
2023/10/20 00:25:31;;;;;;;6.63;6.13;;;;;;;14.50;100.00;95335.34;5073642;28;20695;-73
2023/10/20 00:27:58;;;;;;;7.73;6.93;;;;;;;14.67;100.00;95333.53;5073539;28;20735;-73
2023/10/20 00:30:25;;;;;;;7.33;6.63;;;;;;;14.46;100.00;95329.84;5074036;28;20204;-73
2023/10/20 00:32:51;;;;;;;6.57;5.90;;;;;;;14.44;100.00;95342.72;5073878;28;20291;-73
2023/10/20 00:35:18;;;;;;;7.30;6.60;;;;;;;14.49;100.00;95339.13;5073783;28;20212;-73
2023/10/20 00:37:44;;;;;;;8.77;7.20;;;;;;;14.52;100.00;95333.16;5073598;28;20597;-73
2023/10/20 00:40:12;;;;;;;6.33;5.73;;;;;;;14.42;100.00;95330.78;5073695;28;20706;-73
2023/10/20 00:42:39;;;;;;;7.70;7.00;;;;;;;14.23;100.00;95314.16;5073963;28;20208;-73
2023/10/20 00:45:08;;;;;;;8.00;6.63;;;;;;;14.20;100.00;95304.06;5073673;28;20318;-73
2023/10/20 00:47:35;;;;;;;6.87;6.10;;;;;;;14.19;100.00;95292.59;5073656;28;20294;-73
2023/10/20 00:50:02;;;;;;;6.13;5.53;;;;;;;14.35;100.00;95295.66;5073673;28;20292;-73
2023/10/20 00:52:31;;;;;;;6.43;5.83;;;;;;;14.42;100.00;95290.69;5073493;28;20299;-73
2023/10/20 00:54:58;;;;;;;8.13;5.43;;;;;;;14.45;100.00;95288.16;5073593;28;20613;-73
2023/10/20 00:57:24;;;;;;;6.00;5.40;;;;;;;14.44;100.00;95283.94;5056224;28;20232;-73
2023/10/20 00:59:51;;;;;;;6.40;5.80;;;;;;;14.53;100.00;95292.75;5073015;28;20683;-73
2023/10/20 01:02:17;;;;;;;7.43;5.80;;;;;;;14.34;100.00;95289.53;5073632;28;20199;-73
2023/10/20 01:04:44;;;;;;;6.00;5.50;;;;;;;14.35;100.00;95283.09;5073521;28;20261;-73
2023/10/20 01:07:11;;;;;;;6.93;6.30;;;;;;;14.28;100.00;95273.94;5073509;28;20205;-73
2023/10/20 01:09:37;;;;;;;6.40;5.80;;;;;;;14.34;100.00;95272.72;5073454;28;20211;-73
2023/10/20 01:12:04;;;;;;;6.33;5.83;;;;;;;14.20;100.00;95256.78;5073427;28;20208;-73
2023/10/20 01:14:30;;;;;;;5.37;4.90;;;;;;;14.31;100.00;95259.97;5073423;28;20330;-73
2023/10/20 01:16:57;;;;;;;5.53;4.97;;;;;;;14.22;100.00;95259.16;5073241;28;20246;-73
2023/10/20 01:19:23;;;;;;;5.40;4.83;;;;;;;14.18;100.00;95255.50;5073309;28;20212;-73
2023/10/20 01:21:49;;;;;;;5.17;4.73;;;;;;;14.21;100.00;95253.03;5073337;28;20209;-73
2023/10/20 01:24:16;;;;;;;7.10;5.70;;;;;;;14.16;100.00;95250.44;5073510;28;20204;-73
2023/10/20 01:26:43;;;;;;;6.63;5.90;;;;;;;14.34;100.00;95246.78;5073282;28;20209;-73
2023/10/20 01:29:12;;;;;;;5.97;5.50;;;;;;;14.28;100.00;95248.00;5075205;28;20593;-73
2023/10/20 01:31:39;;;;;;;6.50;5.93;;;;;;;14.31;100.00;95239.41;5076932;28;20733;-73
2023/10/20 01:34:05;;;;;;;6.67;6.07;;;;;;;14.35;100.00;95232.34;5077229;28;20231;-73
2023/10/20 01:36:31;;;;;;;6.63;5.27;;;;;;;14.24;100.00;95236.38;5077068;28;20231;-73
2023/10/20 01:38:58;;;;;;;8.03;5.90;;;;;;;14.22;100.00;95221.75;5077082;28;20224;-73
2023/10/20 01:41:26;;;;;;;7.80;5.93;;;;;;;14.15;100.00;95211.47;5077039;28;20258;-73
2023/10/20 01:43:52;;;;;;;5.70;5.30;;;;;;;14.30;100.00;95196.94;5077011;28;20228;-73
2023/10/20 01:46:18;;;;;;;6.47;5.87;;;;;;;14.12;100.00;95188.06;5077247;28;20215;-73
2023/10/20 01:48:45;;;;;;;7.63;5.40;;;;;;;14.13;100.00;95192.31;5076934;28;20220;-73
2023/10/20 01:51:11;;;;;;;6.97;6.03;;;;;;;14.17;100.00;95179.91;5076854;28;20205;-73
2023/10/20 01:53:37;;;;;;;5.63;5.20;;;;;;;14.33;100.00;95162.38;5076398;28;20575;-73
2023/10/20 01:56:04;;;;;;;5.67;4.87;;;;;;;14.30;100.00;95148.84;5076671;28;20201;-73
2023/10/20 01:58:31;;;;;;;6.23;4.93;;;;;;;14.40;100.00;95138.66;5076620;28;20563;-73
2023/10/20 02:00:58;;;;;;;7.10;4.83;;;;;;;14.32;100.00;95126.06;5076595;28;20285;-73
2023/10/20 02:03:24;;;;;;;6.30;5.33;;;;;;;14.29;100.00;95123.22;5077473;28;20209;-73
2023/10/20 02:05:51;;;;;;;6.80;4.93;;;;;;;14.41;100.00;95107.34;5076251;28;20240;-73
2023/10/20 02:08:18;;;;;;;5.60;5.20;;;;;;;14.19;100.00;95100.22;5076450;28;20229;-73
2023/10/20 02:10:45;;;;;;;5.37;4.80;;;;;;;14.17;100.00;95101.66;5076522;28;20214;-73
2023/10/20 02:13:11;;;;;;;5.77;5.23;;;;;;;14.09;100.00;95092.53;5076099;28;20209;-73
2023/10/20 02:15:38;;;;;;;6.47;5.80;;;;;;;14.12;100.00;95083.91;5076118;28;20668;-73
2023/10/20 02:18:06;;;;;;;6.23;5.73;;;;;;;14.15;100.00;95077.91;5076280;28;20660;-73
2023/10/20 02:20:32;;;;;;;7.30;5.63;;;;;;;14.03;100.00;95072.41;5076343;28;20265;-73
2023/10/20 02:22:59;;;;;;;8.13;6.23;;;;;;;13.91;100.00;95068.75;5076258;28;20215;-73
2023/10/20 02:25:25;;;;;;;6.73;6.13;;;;;;;14.00;100.00;95057.00;5076174;28;20200;-73
2023/10/20 02:27:52;;;;;;;6.50;5.73;;;;;;;14.03;100.00;95053.72;5076167;28;20220;-73
2023/10/20 02:30:18;;;;;;;8.60;7.37;;;;;;;14.07;100.00;95053.88;5076110;28;20291;-73
2023/10/20 02:32:45;;;;;;;9.30;7.73;;;;;;;14.05;100.00;95048.03;5075756;28;20682;-73
2023/10/20 02:35:12;;;;;;;9.47;8.60;;;;;;;14.13;100.00;95029.38;5075757;28;20211;-73
2023/10/20 02:37:38;;;;;;;9.37;8.47;;;;;;;14.21;100.00;95025.16;5075513;28;20243;-73
2023/10/20 02:40:05;;;;;;;10.20;8.30;;;;;;;14.14;100.00;95022.13;5075816;28;20204;-73
2023/10/20 02:42:32;;;;;;;8.13;7.37;;;;;;;14.15;100.00;95037.06;5075910;28;20201;-73
2023/10/20 02:44:59;;;;;;;8.20;7.40;;;;;;;14.12;100.00;95043.84;5075866;28;20213;-73
2023/10/20 02:47:25;;;;;;;8.57;7.80;;;;;;;14.07;100.00;95051.97;5075709;28;20224;-73
2023/10/20 02:49:56;;;;;;;9.53;8.33;;;;;;;14.06;100.00;95044.28;5075821;28;20213;-73
2023/10/20 02:52:26;;;;;;;8.67;7.67;;;;;;;13.99;100.00;95046.63;5075426;28;20201;-73
2023/10/20 02:54:56;;;;;;;8.50;7.70;;;;;;;13.92;100.00;95047.09;5076365;28;20205;-73
2023/10/20 02:57:23;;;;;;;8.07;7.37;;;;;;;13.92;100.00;95048.97;5075499;28;20225;-73
2023/10/20 02:59:50;;;;;;;8.77;7.90;;;;;;;13.93;100.00;95047.88;5075323;28;20205;-73
2023/10/20 03:02:17;;;;;;;8.77;7.63;;;;;;;13.97;100.00;95052.28;5075228;28;20501;-73
2023/10/20 03:04:44;;;;;;;9.20;8.03;;;;;;;13.86;100.00;95058.22;5075452;28;20207;-73
2023/10/20 03:07:10;;;;;;;8.20;7.50;;;;;;;13.94;100.00;95058.25;5075309;28;20208;-73
2023/10/20 03:09:37;;;;;;;8.90;7.90;;;;;;;14.08;100.00;95058.09;5075638;28;20204;-73
2023/10/20 03:12:04;;;;;;;9.43;8.10;;;;;;;14.09;100.00;95049.78;5075372;28;20287;-73
2023/10/20 03:14:31;;;;;;;8.77;7.87;;;;;;;14.18;100.00;95047.13;5075272;28;20216;-73
2023/10/20 03:16:57;;;;;;;11.67;8.83;;;;;;;13.99;100.00;95039.41;5074740;28;20220;-73
2023/10/20 03:19:24;;;;;;;13.93;9.67;;;;;;;14.10;100.00;95024.63;5075116;28;20207;-73
2023/10/20 03:21:50;;;;;;;10.33;8.97;;;;;;;14.00;100.00;95022.28;5075205;28;20201;-73
2023/10/20 03:24:16;;;;;;;9.87;8.47;;;;;;;13.91;100.00;95013.47;5075318;28;20204;-73
2023/10/20 03:26:43;;;;;;;10.57;8.53;;;;;;;13.77;100.00;94996.81;5075063;28;20207;-73
2023/10/20 03:29:09;;;;;;;9.67;7.90;;;;;;;13.76;100.00;94989.91;5075123;28;20229;-73
2023/10/20 03:31:36;;;;;;;9.80;8.87;;;;;;;13.69;100.00;94986.91;5074675;28;20215;-73
2023/10/20 03:34:02;;;;;;;8.90;7.57;;;;;;;14.13;100.00;94993.84;5075122;28;20211;-73
2023/10/20 03:36:28;;;;;;;9.43;8.53;;;;;;;14.19;100.00;94987.22;5074821;28;20214;-73
2023/10/20 03:38:56;;;;;;;9.37;8.47;;;;;;;14.20;100.00;94972.81;5074755;28;20220;-73
2023/10/20 03:41:23;;;;;;;10.63;9.20;;;;;;;14.27;100.00;94951.75;5074765;28;20274;-73
2023/10/20 03:43:50;;;;;;;10.17;8.40;;;;;;;14.24;100.00;94944.38;5074699;28;20219;-73
2023/10/20 03:46:18;;;;;;;9.60;8.23;;;;;;;14.18;100.00;94940.25;5074662;28;20253;-73
2023/10/20 03:48:45;;;;;;;9.30;8.40;;;;;;;14.24;100.00;94955.84;5074519;28;20256;-73
2023/10/20 03:51:12;;;;;;;10.80;8.80;;;;;;;14.23;100.00;94940.91;5074064;28;20239;-73
2023/10/20 03:53:46;;;;;;;10.03;8.80;;;;;;;14.37;100.00;94930.03;5074455;28;20232;-73
2023/10/20 03:56:13;;;;;;;10.80;8.40;;;;;;;14.36;100.00;94907.88;5074582;28;20193;-73
2023/10/20 03:58:42;;;;;;;10.10;8.00;;;;;;;14.31;100.00;94915.28;5074331;28;20228;-73
2023/10/20 04:01:08;;;;;;;9.67;8.27;;;;;;;14.20;100.00;94916.69;5073573;28;20239;-73
2023/10/20 04:03:35;;;;;;;8.83;7.97;;;;;;;14.40;100.00;94906.16;5074203;28;20209;-73
2023/10/20 04:06:01;;;;;;;10.43;8.00;;;;;;;14.18;100.00;94903.66;5073943;28;20667;-73
2023/10/20 04:08:28;;;;;;;9.13;8.03;;;;;;;14.19;100.00;94901.75;5074250;28;20224;-73
2023/10/20 04:10:58;;;;;;;8.97;8.03;;;;;;;14.24;100.00;94898.97;5080882;28;20205;-73
2023/10/20 04:13:24;;;;;;;8.67;7.87;;;;;;;14.30;100.00;94882.44;5081868;28;20205;-72
2023/10/20 04:15:52;;;;;;;10.63;9.17;;;;;;;14.25;100.00;94871.91;5081721;28;20211;-72
2023/10/20 04:18:19;;;;;;;9.73;8.87;;;;;;;14.24;100.00;94856.22;5080705;28;20224;-72
2023/10/20 04:20:48;;;;;;;9.17;7.90;;;;;;;14.27;100.00;94851.03;5081122;28;20771;-72
2023/10/20 04:23:17;;;;;;;10.47;8.57;;;;;;;14.23;100.00;94844.75;5080894;28;20204;-72
2023/10/20 04:25:52;;;;;;;7.63;6.67;;;;;;;14.15;100.00;94840.16;5080798;28;20209;-72
2023/10/20 04:28:28;;;;;;;7.47;5.47;;;;;;;14.02;100.00;94822.44;5081270;28;20232;-73
2023/10/20 04:41:56;;;;;;;6.00;4.93;;;;;;;13.78;100.00;94795.50;5073499;28;20566;-73
2023/10/20 04:52:58;;;;;;;4.90;4.40;;;;;;;13.75;100.00;94774.75;5032682;28;20204;-73
2023/10/20 04:58:21;;;;;;;5.30;4.80;;;;;;;13.74;100.00;94748.41;5072491;28;20707;-73
2023/10/20 05:00:59;;;;;;;5.93;5.13;;;;;;;13.73;100.00;94738.81;5072993;28;20676;-73
2023/10/20 05:03:44;;;;;;;7.63;4.83;;;;;;;13.65;100.00;94732.41;5072115;28;20188;-73
2023/10/20 05:06:22;;;;;;;7.93;5.57;;;;;;;13.69;100.00;94717.31;5073336;28;20192;-73
2023/10/20 05:08:48;;;;;;;6.37;5.83;;;;;;;13.72;100.00;94707.88;5074031;28;20220;-73
2023/10/20 05:11:15;;;;;;;7.07;4.97;;;;;;;13.74;100.00;94693.13;5072961;28;20207;-73
2023/10/20 05:13:43;;;;;;;5.27;4.73;;;;;;;13.68;100.00;94675.72;5072753;28;20204;-73
2023/10/20 05:16:10;;;;;;;5.73;4.87;;;;;;;13.65;100.00;94689.69;5072935;28;20219;-73
2023/10/20 05:18:38;;;;;;;5.73;4.33;;;;;;;13.68;100.00;94678.41;5072912;28;20239;-73
2023/10/20 05:21:07;;;;;;;5.73;4.90;;;;;;;13.52;100.00;94664.00;5073216;28;20680;-74
2023/10/20 05:23:34;;;;;;;6.67;4.60;;;;;;;13.67;100.00;94650.16;5072906;28;20672;-73
2023/10/20 05:26:02;;;;;;;5.53;5.03;;;;;;;13.70;100.00;94648.72;5072989;28;20204;-74
2023/10/20 05:28:30;;;;;;;7.90;5.13;;;;;;;13.43;100.00;94638.47;5072726;28;20243;-73
2023/10/20 05:30:57;;;;;;;7.37;5.23;;;;;;;13.62;100.00;94636.94;5072865;28;20210;-73
2023/10/20 05:33:24;;;;;;;5.97;5.37;;;;;;;13.67;100.00;94634.13;5072967;28;20207;-73
2023/10/20 05:35:51;;;;;;;6.37;5.30;;;;;;;13.59;100.00;94634.94;5054906;28;20239;-73
2023/10/20 05:38:17;;;;;;;5.63;5.10;;;;;;;13.69;100.00;94634.56;5072860;28;20232;-73
2023/10/20 05:40:44;;;;;;;5.60;5.20;;;;;;;13.64;100.00;94623.28;5072889;28;20209;-73
2023/10/20 05:43:11;;;;;;;6.87;5.20;;;;;;;13.66;100.00;94624.53;5072798;28;20211;-73
2023/10/20 05:45:39;;;;;;;6.00;4.90;;;;;;;13.69;100.00;94604.44;5072855;28;20204;-73
2023/10/20 05:48:06;;;;;;;6.77;5.47;;;;;;;13.69;100.00;94575.88;5073524;28;20225;-72
2023/10/20 05:50:37;;;;;;;6.93;5.53;;;;;;;13.57;100.00;94548.31;5072842;28;20213;-72
2023/10/20 05:53:04;;;;;;;6.80;5.27;;;;;;;13.61;100.00;94565.25;5072905;28;20232;-72
2023/10/20 05:55:32;;;;;;;7.20;6.20;;;;;;;13.61;100.00;94575.91;5073102;28;20205;-72
2023/10/20 05:57:58;;;;;;;6.33;5.40;;;;;;;13.46;100.00;94563.88;5072380;28;20229;-72
2023/10/20 06:00:25;;;;;;;7.73;5.80;;;;;;;13.60;100.00;94569.78;5072354;28;20239;-73
2023/10/20 06:02:52;;;;;;;7.03;6.37;;;;;;;13.60;100.00;94559.09;5072143;28;20671;-73
2023/10/20 06:05:18;;;;;;;8.77;6.23;;;;;;;13.61;100.00;94539.31;5072561;28;20236;-73
2023/10/20 06:07:45;;;;;;;8.73;6.73;;;;;;;13.49;100.00;94531.25;5072263;28;20270;-72
2023/10/20 06:10:13;;;;;;;7.90;7.10;;;;;;;13.46;100.00;94526.53;5072351;28;20315;-72
2023/10/20 06:12:40;;;;;;;7.80;7.10;;;;;;;13.55;100.00;94529.16;5072378;28;20244;-73
2023/10/20 06:15:09;;;;;;;8.07;7.37;;;;;;;13.38;100.00;94518.59;5074333;28;20212;-72
2023/10/20 06:17:36;;;;;;;8.87;7.80;;;;;;;13.34;100.00;94515.00;5075412;28;20259;-72
2023/10/20 06:20:05;;;;;;;8.43;7.63;;;;;;;13.32;100.00;94504.63;5075827;28;20205;-72
2023/10/20 06:22:32;;;;;;;9.00;8.20;;;;;;;13.23;100.00;94495.91;5075529;28;20223;-72
2023/10/20 06:24:59;;;;;;;8.90;8.00;;;;;;;13.28;100.00;94502.91;5075240;28;20217;-72
2023/10/20 06:27:26;;;;;;;8.80;7.90;;;;;;;13.28;100.00;94487.72;5075270;28;20273;-72
2023/10/20 06:29:56;;;;;;;9.13;8.30;;;;;;;13.22;100.00;94488.22;5076327;28;20216;-72
2023/10/20 06:32:25;;;;;;;9.30;8.37;;;;;;;13.25;100.00;94504.34;5075307;28;20193;-72
2023/10/20 06:34:58;;;;;;;9.60;8.80;;;;;;;13.34;100.00;94494.41;5076092;28;20296;-72
2023/10/20 06:37:28;;;;;;;10.47;9.57;;;;;;;13.44;100.00;94479.94;5075112;28;20648;-73
2023/10/20 06:39:55;;;;;;;10.30;9.27;;;;;;;13.39;100.00;94464.88;5075685;28;20189;-73
2023/10/20 06:42:23;;;;;;;10.30;9.23;;;;;;;13.41;100.00;94469.91;5075584;28;20205;-73
2023/10/20 06:44:49;;;;;;;12.70;8.77;;;;;;;13.41;100.00;94459.25;5074923;28;20204;-72
2023/10/20 06:47:16;;;;;;;10.60;9.50;;;;;;;13.38;100.00;94450.00;5075189;28;20229;-72
2023/10/20 06:49:43;;;;;;;9.57;8.67;;;;;;;13.54;100.00;94434.19;5075262;28;20212;-73
2023/10/20 06:52:10;;;;;;;9.93;8.93;;;;;;;13.63;100.00;94438.38;5075165;28;20265;-73
2023/10/20 06:54:36;;;;;;;10.33;9.33;;;;;;;13.60;100.00;94444.38;5075431;28;20211;-73
2023/10/20 06:57:03;;;;;;;10.37;9.37;;;;;;;13.58;100.00;94427.13;5075023;28;20689;-74
2023/10/20 06:59:29;;;;;;;11.23;9.23;;;;;;;13.65;100.00;94428.16;5075004;28;20237;-73
2023/10/20 07:02:00;;;;;;;11.67;10.57;;;;;;;13.73;100.00;94407.84;5075735;28;20220;-73
2023/10/20 07:04:26;;;;;;;10.03;9.00;;;;;;;13.60;100.00;94409.66;5075245;28;20230;-73
2023/10/20 07:06:53;;;;;;;9.83;8.83;;;;;;;13.65;100.00;94422.06;5075203;28;20291;-73
2023/10/20 07:09:20;;;;;;;10.57;9.47;;;;;;;13.67;100.00;94423.28;5075097;28;20211;-73
2023/10/20 07:11:48;;;;;;;9.87;8.97;;;;;;;13.76;100.00;94405.31;5075124;28;20560;-73
2023/10/20 07:14:14;;;;;;;10.20;9.30;;;;;;;13.84;100.00;94401.78;5074801;28;20209;-73
2023/10/20 07:16:41;;;;;;;10.17;8.80;;;;;;;14.02;100.00;94383.75;5074825;28;20216;-73
2023/10/20 07:19:09;;;;;;;9.73;8.73;;;;;;;13.87;100.00;94377.09;5074952;28;20239;-73
2023/10/20 07:21:36;;;;;;;9.67;8.67;;;;;;;13.83;100.00;94386.88;5074852;28;20236;-73
2023/10/20 07:24:03;;;;;;;9.47;8.60;;;;;;;13.88;100.00;94400.03;5074574;28;20215;-73
2023/10/20 07:26:30;;;;;;;9.83;8.00;;;;;;;13.90;100.00;94403.16;5073473;28;20564;-73
2023/10/20 07:28:56;;;;;;;11.03;9.33;;;;;;;13.92;100.00;94397.47;5074281;28;20225;-73
2023/10/20 07:31:22;;;;;;;9.70;8.73;;;;;;;13.86;100.00;94402.25;5075058;28;20201;-73
2023/10/20 07:33:50;;;;;;;10.50;9.50;;;;;;;13.78;100.00;94400.44;5074577;28;20683;-73
2023/10/20 07:36:17;;;;;;;10.90;9.90;;;;;;;13.98;100.00;94396.94;5074756;28;20204;-73
2023/10/20 07:38:44;;;;;;;10.93;9.40;;;;;;;13.84;100.00;94404.44;5074442;28;20228;-73
2023/10/20 07:41:13;;;;;;;10.50;9.60;;;;;;;13.96;100.00;94399.19;5074591;28;20240;-73
2023/10/20 07:43:41;;;;;;;11.33;10.17;;;;;;;13.87;100.00;94398.47;5074418;28;20204;-73
2023/10/20 07:46:14;;;;;;;10.87;9.77;;;;;;;14.06;100.00;94385.41;5074434;28;20211;-73
2023/10/20 07:48:40;;;;;;;11.10;9.53;;;;;;;14.01;100.00;94382.94;5074649;28;20312;-73
2023/10/20 07:51:07;;;;;;;11.53;10.43;;;;;;;14.10;100.00;94383.66;5074447;28;20611;-73
2023/10/20 07:53:33;;;;;;;10.73;9.73;;;;;;;14.10;100.00;94396.22;5074318;28;20214;-73
2023/10/20 07:56:00;;;;;;;12.00;10.90;;;;;;;14.20;100.00;94401.16;5073973;28;20207;-73
2023/10/20 07:58:27;;;;;;;11.60;10.50;;;;;;;14.22;100.00;94393.63;5073746;28;20647;-73
2023/10/20 08:00:53;;;;;;;10.53;9.53;;;;;;;14.23;100.00;94387.94;5074295;28;20305;-73
2023/10/20 08:03:19;;;;;;;11.03;10.03;;;;;;;14.26;100.00;94386.50;5073590;28;20208;-73
2023/10/20 08:05:46;;;;;;;11.97;10.87;;;;;;;14.10;100.00;94383.66;5073830;28;20212;-73
2023/10/20 08:08:12;;;;;;;11.77;10.57;;;;;;;14.07;100.00;94376.28;5073822;28;20221;-73
2023/10/20 08:10:39;;;;;;;11.63;10.53;;;;;;;14.16;100.00;94385.00;5073774;28;20208;-73
2023/10/20 08:13:05;;;;;;;12.53;11.27;;;;;;;14.14;100.00;94405.91;5074074;28;20215;-73
2023/10/20 08:15:38;;;;;;;11.93;10.80;;;;;;;14.15;100.00;94396.03;5073789;28;20208;-74
2023/10/20 08:18:05;;;;;;;11.10;10.10;;;;;;;14.19;100.00;94400.38;5073529;28;20257;-73
2023/10/20 08:20:31;;;;;;;12.10;10.87;;;;;;;14.21;100.00;94400.88;5073819;28;20200;-73
2023/10/20 08:22:57;;;;;;;11.77;10.77;;;;;;;14.22;100.00;94409.63;5073870;28;20212;-73
2023/10/20 08:25:24;;;;;;;11.60;10.40;;;;;;;14.29;100.00;94415.25;5073315;28;20579;-74
2023/10/20 08:27:50;;;;;;;13.40;9.70;;;;;;;14.24;100.00;94413.53;5073442;28;20560;-73
2023/10/20 08:30:18;;;;;;;10.47;9.47;;;;;;;14.38;100.00;94427.38;5073556;28;20679;-73
2023/10/20 08:32:44;;;;;;;11.53;10.33;;;;;;;14.40;100.00;94433.19;5073701;28;20216;-73
2023/10/20 08:35:11;;;;;;;11.73;10.53;;;;;;;14.38;100.00;94431.97;5073597;28;20204;-73
2023/10/20 08:37:37;;;;;;;10.23;9.33;;;;;;;14.42;100.00;94440.88;5073238;28;20282;-73
2023/10/20 08:40:10;;;;;;;9.70;8.90;;;;;;;14.56;100.00;94452.81;5073556;28;20207;-74
2023/10/20 08:42:38;;;;;;;10.07;9.07;;;;;;;14.49;100.00;94446.47;5073476;28;20203;-74
2023/10/20 08:45:08;;;;;;;9.90;8.90;;;;;;;14.58;100.00;94463.97;5073482;28;20212;-74
2023/10/20 08:47:34;;;;;;;9.87;8.57;;;;;;;14.60;100.00;94461.75;5073389;28;20250;-74
2023/10/20 08:50:01;;;;;;;10.53;8.33;;;;;;;14.73;100.00;94478.59;5055447;28;20205;-73
2023/10/20 08:52:28;;;;;;;11.30;9.40;;;;;;;14.80;100.00;94508.25;5073016;28;20212;-73
2023/10/20 08:54:55;;;;;;;11.63;10.50;;;;;;;14.90;100.00;94535.34;5055378;28;20215;-73
2023/10/20 08:57:21;;;;;;;12.23;9.77;;;;;;;15.02;100.00;94540.72;5072902;28;20224;-73
2023/10/20 08:59:51;;;;;;;10.23;9.13;;;;;;;15.02;100.00;94567.47;5073150;28;20228;-74
2023/10/20 09:02:18;;;;;;;11.20;10.20;;;;;;;14.91;100.00;94590.41;5073373;28;20192;-74
2023/10/20 09:04:53;;;;;;;11.00;9.90;;;;;;;14.91;100.00;94593.06;5073093;28;20211;-74
2023/10/20 09:07:22;;;;;;;10.50;9.63;;;;;;;15.08;100.00;94582.22;5073183;28;20228;-74
2023/10/20 09:09:49;;;;;;;11.37;10.30;;;;;;;15.09;100.00;94593.66;5072892;28;20663;-75
2023/10/20 09:12:16;;;;;;;11.90;10.80;;;;;;;15.09;100.00;94607.84;5072850;28;20228;-72
2023/10/20 09:14:42;;;;;;;12.57;9.93;;;;;;;15.23;100.00;94611.00;5073192;28;20567;-72
2023/10/20 09:17:09;;;;;;;9.90;9.00;;;;;;;15.28;100.00;94591.28;5072688;28;20578;-72
2023/10/20 09:19:36;;;;;;;9.97;9.07;;;;;;;15.32;100.00;94587.59;5073143;28;20232;-72
2023/10/20 09:22:03;;;;;;;9.80;9.00;;;;;;;15.24;100.00;94591.16;5072724;28;20650;-74
2023/10/20 09:24:34;;;;;;;9.77;8.87;;;;;;;15.22;100.00;94598.75;5073679;28;20227;-72
2023/10/20 09:27:02;;;;;;;9.97;8.97;;;;;;;15.25;100.00;94575.88;5072541;28;20570;-75
2023/10/20 09:29:30;;;;;;;9.37;8.60;;;;;;;15.18;100.00;94570.28;5072966;28;20208;-75
2023/10/20 09:32:00;;;;;;;10.60;9.70;;;;;;;15.11;100.00;94581.53;5072412;28;20738;-72
2023/10/20 09:34:27;;;;;;;11.07;9.97;;;;;;;15.09;100.00;94589.13;5072694;28;20189;-74
2023/10/20 09:36:54;;;;;;;10.27;9.40;;;;;;;15.13;100.00;94589.22;5072856;28;20212;-72
2023/10/20 09:39:38;;;;;;;10.73;9.73;;;;;;;15.13;100.00;94589.22;5072934;28;20303;-72
2023/10/20 09:42:07;;;;;;;10.73;9.50;;;;;;;15.12;100.00;94587.66;5073002;28;20193;-74
2023/10/20 09:44:39;;;;;;;11.00;10.00;;;;;;;15.20;100.00;94582.22;5072563;28;20552;-74
2023/10/20 09:47:20;;;;;;;11.30;9.57;;;;;;;15.39;100.00;94603.16;5072654;28;20192;-74
2023/10/20 09:49:47;;;;;;;10.63;9.73;;;;;;;15.40;100.00;94602.81;5057502;28;20200;-74
2023/10/20 09:52:13;;;;;;;10.90;9.80;;;;;;;15.56;100.00;94619.03;5076298;28;20208;-72
2023/10/20 09:54:40;;;;;;;9.97;8.97;;;;;;;15.60;100.00;94636.75;5076359;28;20205;-72
2023/10/20 09:57:08;;;;;;;11.43;9.27;;;;;;;15.72;100.00;94639.47;5075804;28;20224;-72
2023/10/20 09:59:34;;;;;;;9.70;8.73;;;;;;;15.91;100.00;94652.28;5076095;28;20224;-72
2023/10/20 10:02:00;;;;;;;9.07;8.20;;;;;;;15.93;100.00;94648.16;5076604;28;20204;-74
2023/10/20 10:04:28;;;;;;;8.97;8.27;;;;;;;15.97;100.00;94667.81;5075948;28;20208;-73
2023/10/20 10:06:56;;;;;;;8.90;8.20;;;;;;;16.03;100.00;94661.13;5076086;28;20200;-74
2023/10/20 10:09:23;;;;;;;8.87;8.03;;;;;;;15.92;100.00;94675.31;5075883;28;20590;-74
2023/10/20 10:11:49;;;;;;;7.43;6.73;;;;;;;15.79;100.00;94671.81;5076359;28;20211;-73
2023/10/20 10:14:20;;;;;;;8.20;7.07;;;;;;;15.79;100.00;94682.53;5076050;28;20204;-73
2023/10/20 10:16:54;;;;;;;8.23;7.00;;;;;;;15.79;100.00;94681.75;5075685;28;20663;-73
2023/10/20 10:19:24;;;;;;;7.63;6.77;;;;;;;15.88;100.00;94675.16;5076130;28;20225;-73
2023/10/20 10:21:53;;;;;;;7.47;5.70;;;;;;;15.92;100.00;94689.47;5076187;28;20215;-73
2023/10/20 10:24:21;;;;;;;7.10;6.50;;;;;;;15.91;100.00;94687.09;5075766;28;20679;-73
2023/10/20 10:26:56;;;;;;;6.43;5.83;;;;;;;16.01;100.00;94697.41;5075964;28;20201;-73
2023/10/20 10:29:53;;;;;;;6.23;5.63;;;;;;;16.15;100.00;94706.66;5075743;28;20210;-73
2023/10/20 10:32:21;;;;;;;6.73;5.90;;;;;;;16.22;100.00;94711.47;5075632;28;20254;-73
2023/10/20 10:34:52;;;;;;;6.77;5.40;;;;;;;16.42;100.00;94707.94;5075393;28;20204;-74
2023/10/20 10:37:38;;;;;;;5.80;5.30;;;;;;;16.45;100.00;94710.72;5074710;28;20665;-73
2023/10/20 10:40:08;;;;;;;5.50;5.10;;;;;;;16.59;100.00;94710.38;5075208;28;20213;-75
2023/10/20 10:42:39;;;;;;;6.00;4.90;;;;;;;16.48;100.00;94720.00;5075929;28;20208;-75
2023/10/20 10:45:19;;;;;;;5.43;4.80;;;;;;;16.47;100.00;94727.25;5075209;28;20571;-75
2023/10/20 10:47:46;;;;;;;5.43;4.60;;;;;;;16.52;100.00;94718.22;5075605;28;20224;-75
2023/10/20 10:50:15;;;;;;;5.63;4.50;;;;;;;16.62;100.00;94717.75;5075273;28;20659;-75
2023/10/20 10:52:41;;;;;;;6.00;5.43;;;;;;;16.56;100.00;94733.28;5074187;28;20795;-75
2023/10/20 10:55:09;;;;;;;5.67;4.90;;;;;;;16.49;100.00;94730.41;5075537;28;20812;-75
2023/10/20 10:57:36;;;;;;;5.10;4.60;;;;;;;16.56;100.00;94725.22;5075315;28;20225;-75
2023/10/20 11:00:04;;;;;;;4.83;4.43;;;;;;;16.62;100.00;94723.13;5074629;28;20224;-75
2023/10/20 11:02:32;;;;;;;4.43;4.03;;;;;;;16.60;100.00;94712.72;5074960;28;20642;-75
2023/10/20 11:04:59;;;;;;;4.40;4.00;;;;;;;16.64;100.00;94718.22;5075470;28;20205;-75
2023/10/20 11:07:25;;;;;;;4.97;4.47;;;;;;;16.74;100.00;94734.59;5075079;28;20235;-75
2023/10/20 11:09:52;;;;;;;3.50;3.20;;;;;;;16.77;100.00;94730.47;5075264;28;20196;-75
2023/10/20 11:12:18;;;;;;;4.40;2.87;;;;;;;16.96;100.00;94736.81;5074801;28;20660;-75
2023/10/20 11:14:45;;;;;;;3.57;2.93;;;;;;;17.12;100.00;94750.31;5075285;28;20209;-75
2023/10/20 11:17:13;;;;;;;1.70;1.60;;;;;;;17.02;100.00;94737.38;5074648;28;20205;-75
2023/10/20 11:19:39;;;;;;;2.03;1.70;;;;;;;17.08;100.00;94744.06;5074907;28;20330;-75
2023/10/20 11:22:15;;;;;;;1.60;0.97;;;;;;;16.98;100.00;94739.94;5075024;28;20230;-75
2023/10/20 11:24:42;;;;;;;0.80;0.80;;;;;;;16.91;100.00;94750.47;5074808;28;20185;-75
2023/10/20 11:27:08;;;;;;;0.67;0.67;;;;;;;16.95;100.00;94756.72;5074534;28;20676;-74
2023/10/20 11:29:37;;;;;;;0.50;0.50;;;;;;;16.84;100.00;94777.09;5074807;28;20235;-75
2023/10/20 11:32:07;;;;;;;1.00;0.60;;;;;;;16.88;100.00;94764.53;5074529;28;20210;-74
2023/10/20 11:34:34;;;;;;;1.00;0.50;;;;;;;16.74;100.00;94766.78;5074728;28;20284;-75
2023/10/20 11:37:01;;;;;;;0.60;0.60;;;;;;;16.79;100.00;94771.94;5074460;28;20211;-75
2023/10/20 11:39:28;;;;;;;0.50;0.50;;;;;;;16.83;100.00;94764.78;5074581;28;20227;-75
2023/10/20 11:41:56;;;;;;;0.60;0.60;;;;;;;16.84;100.00;94770.94;5074262;28;20212;-75
2023/10/20 11:44:24;;;;;;;2.00;0.50;;;;;;;16.77;100.00;94771.50;5074651;28;20207;-74
2023/10/20 11:46:59;;;;;;;0.40;0.40;;;;;;;16.75;100.00;94779.09;5074639;28;20239;-74